Time;durP1;ratioP1;P1;durP2;ratioP2;P2;SDS_P1;SDS_P2;PMS_P1;PMS_P2;Temp;Humidity;BMP_temperature;BMP_pressure;BME280_temperature;BME280_humidity;BME280_pressure;Samples;Min_cycle;Max_cycle;Signal;HPM_P1;HPM_P2
2024/04/15 00:02:19;;;;;;;2.63;1.80;;;19.20;84.20;;;;;;5545118;25;20562;-51
2024/04/15 00:04:46;;;;;;;2.13;1.83;;;19.20;83.10;;;;;;5552682;25;20507;-50
2024/04/15 00:07:16;;;;;;;2.00;1.60;;;19.20;83.30;;;;;;5556939;25;20510;-49
2024/04/15 00:09:45;;;;;;;2.50;2.03;;;19.20;83.20;;;;;;5561215;25;20447;-47
2024/04/15 00:12:15;;;;;;;1.70;1.60;;;19.20;83.10;;;;;;5544041;25;21120;-48
2024/04/15 00:14:42;;;;;;;2.00;1.80;;;19.20;83.00;;;;;;5522981;25;20466;-50
2024/04/15 00:17:12;;;;;;;2.17;1.80;;;19.20;83.20;;;;;;5563141;25;20502;-49
2024/04/15 00:19:42;;;;;;;2.17;1.70;;;19.20;83.40;;;;;;5560626;25;20564;-49
2024/04/15 00:22:12;;;;;;;2.10;1.90;;;19.20;83.50;;;;;;5553681;25;20887;-50
2024/04/15 00:24:40;;;;;;;2.50;1.70;;;19.20;83.40;;;;;;5572018;25;20502;-49
2024/04/15 00:27:09;;;;;;;2.43;1.30;;;19.20;83.30;;;;;;5562336;25;20457;-48
2024/04/15 00:29:36;;;;;;;1.70;1.43;;;19.20;83.30;;;;;;5547747;25;20572;-48
2024/04/15 00:32:08;;;;;;;1.93;1.83;;;19.20;83.30;;;;;;5559153;25;20459;-50
2024/04/15 00:34:35;;;;;;;3.50;2.00;;;19.20;83.20;;;;;;5550236;25;20506;-47
2024/04/15 00:37:07;;;;;;;2.40;2.20;;;19.20;83.40;;;;;;5548208;25;20562;-48
2024/04/15 00:39:36;;;;;;;2.00;1.83;;;19.20;83.40;;;;;;5552439;25;20498;-52
2024/04/15 00:42:06;;;;;;;2.80;2.10;;;19.10;83.30;;;;;;5551066;25;20460;-48
2024/04/15 00:44:35;;;;;;;1.70;1.60;;;19.20;83.40;;;;;;5544227;25;20467;-50
2024/04/15 00:47:06;;;;;;;3.03;2.00;;;19.10;83.50;;;;;;5560749;25;21134;-49
2024/04/15 00:49:34;;;;;;;2.63;1.93;;;19.10;83.20;;;;;;5559775;25;21116;-48
2024/04/15 00:52:08;;;;;;;2.10;1.90;;;19.10;83.40;;;;;;5561985;25;20988;-48
2024/04/15 00:54:37;;;;;;;2.47;1.90;;;19.10;83.50;;;;;;5543763;25;20524;-50
2024/04/15 00:57:08;;;;;;;2.60;1.93;;;19.10;83.50;;;;;;5559619;25;20551;-50
2024/04/15 00:59:37;;;;;;;2.53;1.80;;;19.10;83.30;;;;;;5548037;25;20462;-49
2024/04/15 01:02:08;;;;;;;2.30;2.10;;;19.10;83.60;;;;;;5559125;25;20462;-49
2024/04/15 01:04:36;;;;;;;1.53;1.43;;;19.10;83.60;;;;;;5572272;25;20454;-48
2024/04/15 01:07:09;;;;;;;4.50;2.03;;;19.10;83.40;;;;;;5558397;25;20563;-48
2024/04/15 01:09:36;;;;;;;1.80;1.70;;;19.10;83.50;;;;;;5549708;25;20578;-50
2024/04/15 01:12:06;;;;;;;2.17;1.60;;;19.10;83.40;;;;;;5560248;25;20466;-49
2024/04/15 01:14:33;;;;;;;1.97;1.73;;;19.10;83.70;;;;;;5547851;25;20812;-48
2024/04/15 01:17:04;;;;;;;1.93;1.73;;;19.10;83.80;;;;;;5560767;25;20511;-50
2024/04/15 01:19:31;;;;;;;2.20;1.90;;;19.10;83.60;;;;;;5560461;25;20530;-49
2024/04/15 01:22:01;;;;;;;2.20;2.00;;;19.10;83.70;;;;;;5558362;25;20466;-48
2024/04/15 01:24:31;;;;;;;1.50;1.40;;;19.10;83.70;;;;;;5541040;25;20443;-48
2024/04/15 01:27:03;;;;;;;1.60;1.50;;;19.10;83.70;;;;;;5547926;25;20577;-49
2024/04/15 01:29:30;;;;;;;3.60;1.60;;;19.10;83.80;;;;;;5555714;25;20455;-51
2024/04/15 01:32:00;;;;;;;1.83;1.73;;;19.10;83.80;;;;;;5546232;25;20459;-49
2024/04/15 01:34:28;;;;;;;1.93;1.83;;;19.10;83.50;;;;;;5551444;25;20442;-47
2024/04/15 01:36:59;;;;;;;1.70;1.60;;;19.10;83.50;;;;;;5568816;25;20718;-48
2024/04/15 01:39:32;;;;;;;1.83;1.70;;;19.10;83.50;;;;;;5563799;25;20472;-48
2024/04/15 01:42:02;;;;;;;2.17;2.00;;;19.10;83.30;;;;;;5559067;25;20494;-48
2024/04/15 01:44:29;;;;;;;2.70;2.00;;;19.00;83.40;;;;;;5567984;25;20502;-48
2024/04/15 01:46:59;;;;;;;2.13;1.83;;;19.00;83.40;;;;;;5558817;25;20463;-48
2024/04/15 01:49:26;;;;;;;2.07;1.87;;;19.10;83.60;;;;;;5556307;25;20836;-47
2024/04/15 01:51:56;;;;;;;2.30;1.43;;;19.00;83.40;;;;;;5559324;25;20462;-49
2024/04/15 01:54:23;;;;;;;2.27;1.87;;;19.00;83.30;;;;;;5560060;25;20466;-47
2024/04/15 01:56:56;;;;;;;1.90;1.70;;;19.00;83.20;;;;;;5555307;25;20503;-48
2024/04/15 01:59:23;;;;;;;1.70;1.60;;;19.00;83.10;;;;;;5520628;25;20578;-51
2024/04/15 02:01:53;;;;;;;2.07;1.50;;;19.00;83.40;;;;;;5557949;25;20454;-49
2024/04/15 02:04:21;;;;;;;1.97;1.50;;;19.00;83.40;;;;;;5549630;25;20455;-50
2024/04/15 02:06:51;;;;;;;2.40;2.00;;;19.00;83.30;;;;;;5550381;25;20506;-48
2024/04/15 02:09:19;;;;;;;1.77;1.57;;;19.00;83.40;;;;;;5555691;25;20462;-49
2024/04/15 02:11:49;;;;;;;4.53;2.13;;;19.00;83.60;;;;;;5556968;25;20466;-49
2024/04/15 02:14:18;;;;;;;1.80;1.70;;;19.00;83.80;;;;;;5549486;25;21078;-48
2024/04/15 02:16:48;;;;;;;1.63;1.53;;;19.00;83.80;;;;;;5563115;25;20454;-49
2024/04/15 02:19:16;;;;;;;4.00;2.00;;;18.90;83.60;;;;;;5560098;25;20545;-52
2024/04/15 02:21:46;;;;;;;2.50;1.63;;;18.90;83.60;;;;;;5560442;25;20518;-50
2024/04/15 02:24:16;;;;;;;1.93;1.70;;;18.90;83.60;;;;;;5561652;25;20571;-48
2024/04/15 02:26:46;;;;;;;2.57;2.00;;;18.90;83.70;;;;;;5562393;25;20451;-51
2024/04/15 02:29:13;;;;;;;2.20;1.53;;;18.90;83.40;;;;;;5558507;25;20475;-48
2024/04/15 02:31:45;;;;;;;2.93;1.77;;;18.90;83.60;;;;;;5560602;25;20446;-49
2024/04/15 02:34:13;;;;;;;2.00;1.80;;;18.90;83.60;;;;;;5561443;25;21015;-48
2024/04/15 02:36:43;;;;;;;2.33;2.13;;;18.90;83.70;;;;;;5559947;25;20438;-48
2024/04/15 02:39:11;;;;;;;2.30;1.87;;;18.90;83.90;;;;;;5559128;25;21042;-52
2024/04/15 02:41:42;;;;;;;2.93;1.70;;;18.90;84.00;;;;;;5551801;25;20470;-50
2024/04/15 02:44:09;;;;;;;1.97;1.53;;;18.90;83.90;;;;;;5557283;25;20454;-48
2024/04/15 02:46:39;;;;;;;1.80;1.70;;;18.90;83.80;;;;;;5554199;25;20452;-48
2024/04/15 02:49:09;;;;;;;2.20;1.80;;;18.90;84.10;;;;;;5557801;25;20863;-48
2024/04/15 02:51:39;;;;;;;1.87;1.67;;;18.90;83.90;;;;;;5520559;25;24131;-49
2024/04/15 02:54:06;;;;;;;2.00;1.87;;;18.90;84.20;;;;;;5561342;25;20498;-49
2024/04/15 02:56:37;;;;;;;1.73;1.50;;;18.90;84.10;;;;;;5550878;25;20547;-48
2024/04/15 02:59:04;;;;;;;1.93;1.63;;;18.80;84.10;;;;;;5557835;25;20514;-49
2024/04/15 03:01:34;;;;;;;1.77;1.60;;;18.90;84.20;;;;;;5561869;25;20455;-48
2024/04/15 03:04:01;;;;;;;1.57;1.47;;;18.90;84.60;;;;;;5542623;25;20554;-48
2024/04/15 03:06:34;;;;;;;1.87;1.77;;;18.80;84.00;;;;;;5550633;25;21099;-48
2024/04/15 03:09:04;;;;;;;1.60;1.50;;;18.80;84.10;;;;;;5561315;25;20535;-49
2024/04/15 03:11:33;;;;;;;1.67;1.53;;;18.80;83.90;;;;;;5560396;25;20564;-48
2024/04/15 03:14:01;;;;;;;2.03;1.37;;;18.80;84.20;;;;;;5548643;25;20451;-48
2024/04/15 03:16:31;;;;;;;1.73;1.63;;;18.80;83.90;;;;;;5562253;25;20495;-49
2024/04/15 03:18:58;;;;;;;2.00;1.60;;;18.80;84.20;;;;;;5560896;25;20447;-50
2024/04/15 03:21:33;;;;;;;1.53;1.43;;;18.80;83.90;;;;;;5562051;25;20787;-46
2024/04/15 03:24:00;;;;;;;2.40;2.00;;;18.80;84.00;;;;;;5562384;25;20506;-47
2024/04/15 03:26:31;;;;;;;2.53;1.70;;;18.80;83.90;;;;;;5561174;25;20452;-50
2024/04/15 03:28:58;;;;;;;1.80;1.70;;;18.80;84.20;;;;;;5557103;25;20517;-49
2024/04/15 03:31:28;;;;;;;1.83;1.63;;;18.80;83.80;;;;;;5556090;25;20518;-48
2024/04/15 03:33:55;;;;;;;3.17;2.10;;;18.80;84.10;;;;;;5560988;25;20470;-50
2024/04/15 03:36:27;;;;;;;3.87;1.90;;;18.70;83.90;;;;;;5560982;25;20450;-48
2024/04/15 03:39:00;;;;;;;2.30;1.50;;;18.70;84.00;;;;;;5558259;25;20508;-50
2024/04/15 03:41:30;;;;;;;5.20;2.13;;;18.70;84.00;;;;;;5560521;25;20575;-48
2024/04/15 03:43:57;;;;;;;1.80;1.60;;;18.70;83.90;;;;;;5556338;25;20543;-49
2024/04/15 03:46:27;;;;;;;1.63;1.40;;;18.70;84.10;;;;;;5560944;25;20450;-47
2024/04/15 03:48:54;;;;;;;1.83;1.60;;;18.70;84.10;;;;;;5545553;25;20468;-46
2024/04/15 03:51:24;;;;;;;1.53;1.43;;;18.70;84.20;;;;;;5560165;25;20504;-49
2024/04/15 03:53:51;;;;;;;2.00;1.40;;;18.70;84.10;;;;;;5560343;25;21030;-49
2024/04/15 03:56:26;;;;;;;1.83;1.50;;;18.70;84.30;;;;;;5554363;25;20451;-48
2024/04/15 03:58:53;;;;;;;1.50;1.40;;;18.70;84.20;;;;;;5554186;25;20463;-49
2024/04/15 04:01:23;;;;;;;2.27;1.50;;;18.70;84.20;;;;;;5559392;25;20557;-50
2024/04/15 04:03:50;;;;;;;2.27;1.47;;;18.70;84.10;;;;;;5560603;25;20458;-46
2024/04/15 04:06:21;;;;;;;1.67;1.40;;;18.60;85.50;;;;;;5553706;25;20499;-47
2024/04/15 04:08:48;;;;;;;1.90;1.67;;;18.60;84.20;;;;;;5555129;25;20458;-47
2024/04/15 04:11:21;;;;;;;2.40;1.77;;;18.60;84.20;;;;;;5561054;25;20463;-49
2024/04/15 04:13:52;;;;;;;1.50;1.33;;;18.60;84.10;;;;;;5557594;25;21066;-49
2024/04/15 04:16:23;;;;;;;1.50;1.40;;;18.60;84.50;;;;;;5558605;25;20530;-47
2024/04/15 04:18:50;;;;;;;2.20;1.57;;;18.60;84.20;;;;;;5550135;25;20451;-48
2024/04/15 04:21:20;;;;;;;3.37;1.73;;;18.60;84.40;;;;;;5560601;25;20848;-47
2024/04/15 04:23:47;;;;;;;5.13;2.00;;;18.60;84.60;;;;;;5553155;25;20474;-49
2024/04/15 04:26:17;;;;;;;1.97;1.80;;;18.60;84.30;;;;;;5560130;25;20862;-48
2024/04/15 04:28:44;;;;;;;1.57;1.43;;;18.60;84.40;;;;;;5555225;25;20507;-51
2024/04/15 04:31:17;;;;;;;2.10;1.60;;;18.50;84.50;;;;;;5553445;25;20462;-50
2024/04/15 04:33:44;;;;;;;3.10;2.23;;;18.50;84.50;;;;;;5561718;25;20442;-48
2024/04/15 04:36:19;;;;;;;1.73;1.40;;;18.50;84.50;;;;;;5513885;25;20459;-47
2024/04/15 04:38:47;;;;;;;1.90;1.43;;;18.50;84.40;;;;;;5548432;25;21026;-45
2024/04/15 04:41:16;;;;;;;1.73;1.63;;;18.50;84.30;;;;;;5561493;25;20471;-47
2024/04/15 04:43:44;;;;;;;1.90;1.50;;;18.50;84.20;;;;;;5557088;25;20511;-48
2024/04/15 04:46:17;;;;;;;1.30;1.10;;;18.50;84.20;;;;;;5557211;25;20575;-47
2024/04/15 04:48:44;;;;;;;1.50;1.40;;;18.50;84.60;;;;;;5572631;25;20501;-47
2024/04/15 04:51:14;;;;;;;1.57;1.40;;;18.50;84.60;;;;;;5568889;25;20454;-47
2024/04/15 04:53:41;;;;;;;2.30;1.50;;;18.50;84.60;;;;;;5561758;25;20458;-47
2024/04/15 04:56:12;;;;;;;1.90;1.70;;;18.50;84.40;;;;;;5561230;25;21014;-48
2024/04/15 04:58:41;;;;;;;1.63;1.33;;;18.50;84.50;;;;;;5548716;25;20548;-48
2024/04/15 05:01:12;;;;;;;3.73;1.57;;;18.40;84.20;;;;;;5557460;25;20468;-46
2024/04/15 05:03:43;;;;;;;3.00;1.20;;;18.50;84.20;;;;;;5555278;25;20450;-46
2024/04/15 05:06:15;;;;;;;1.57;1.40;;;18.50;84.50;;;;;;5554672;25;20451;-47
2024/04/15 05:08:43;;;;;;;3.23;1.87;;;18.40;84.50;;;;;;5561239;25;20545;-47
2024/04/15 05:11:13;;;;;;;1.30;1.20;;;18.40;84.30;;;;;;5562021;25;20518;-46
2024/04/15 05:13:40;;;;;;;1.83;1.50;;;18.40;84.40;;;;;;5553065;25;20455;-48
2024/04/15 05:16:12;;;;;;;1.60;1.50;;;18.40;84.60;;;;;;5566535;25;20510;-48
2024/04/15 05:18:43;;;;;;;2.37;1.57;;;18.40;84.30;;;;;;5560296;25;20503;-47
2024/04/15 05:21:16;;;;;;;3.20;1.43;;;18.40;84.60;;;;;;5556001;25;20920;-47
2024/04/15 05:23:44;;;;;;;1.87;1.30;;;18.40;84.30;;;;;;5540557;25;20519;-47
2024/04/15 05:26:14;;;;;;;1.67;1.40;;;18.40;85.60;;;;;;5511134;25;20858;-47
2024/04/15 05:28:41;;;;;;;1.67;1.40;;;18.40;84.30;;;;;;5555564;25;20451;-45
2024/04/15 05:31:11;;;;;;;1.83;1.47;;;18.40;84.00;;;;;;5557748;25;20470;-48
2024/04/15 05:33:38;;;;;;;1.47;1.27;;;18.40;84.40;;;;;;5560308;25;20463;-47
2024/04/15 05:36:11;;;;;;;1.53;1.30;;;18.40;84.40;;;;;;5559957;25;21076;-48
2024/04/15 05:38:38;;;;;;;5.30;1.60;;;18.40;84.10;;;;;;5525716;25;20853;-47
2024/04/15 05:41:08;;;;;;;1.90;1.43;;;18.40;84.20;;;;;;5555026;25;21105;-46
2024/04/15 05:43:36;;;;;;;4.07;1.40;;;18.40;84.30;;;;;;5555444;25;20786;-48
2024/04/15 05:46:06;;;;;;;1.90;1.50;;;18.30;84.40;;;;;;5560088;25;20882;-48
2024/04/15 05:48:34;;;;;;;1.97;1.20;;;18.30;84.30;;;;;;5563029;25;20454;-46
2024/04/15 05:51:04;;;;;;;2.10;1.50;;;18.30;84.50;;;;;;5559027;25;20806;-48
2024/04/15 05:53:33;;;;;;;1.83;1.60;;;18.30;84.60;;;;;;5551595;25;20466;-49
2024/04/15 05:56:03;;;;;;;1.60;1.10;;;18.30;84.30;;;;;;5568744;25;20857;-47
2024/04/15 05:58:31;;;;;;;1.50;1.30;;;18.30;84.20;;;;;;5558446;25;20503;-49
2024/04/15 06:01:00;;;;;;;2.30;1.50;;;18.30;84.30;;;;;;5558077;25;20514;-46
2024/04/15 06:03:28;;;;;;;2.50;1.50;;;18.30;84.20;;;;;;5564631;25;20575;-49
2024/04/15 06:05:58;;;;;;;1.50;1.40;;;18.30;83.70;;;;;;5563048;25;20500;-49
2024/04/15 06:08:26;;;;;;;1.63;1.00;;;18.30;84.10;;;;;;5556454;25;20463;-49
2024/04/15 06:10:58;;;;;;;3.10;1.50;;;18.30;84.00;;;;;;5561678;25;20550;-49
2024/04/15 06:13:26;;;;;;;2.80;1.33;;;18.30;84.00;;;;;;5555336;25;20455;-46
2024/04/15 06:15:56;;;;;;;2.80;1.40;;;18.30;84.20;;;;;;5562877;25;20492;-47
2024/04/15 06:18:23;;;;;;;1.93;1.17;;;18.30;84.20;;;;;;5558442;25;20568;-48
2024/04/15 06:20:53;;;;;;;1.80;1.20;;;18.20;83.80;;;;;;5550248;25;20467;-46
2024/04/15 06:23:20;;;;;;;4.13;1.13;;;18.20;84.00;;;;;;5554964;25;20454;-48
2024/04/15 06:25:53;;;;;;;1.70;1.50;;;18.20;83.90;;;;;;5556186;25;20454;-48
2024/04/15 06:28:22;;;;;;;2.60;1.73;;;18.20;83.80;;;;;;5553603;25;20497;-48
2024/04/15 06:30:52;;;;;;;2.00;1.10;;;18.20;84.10;;;;;;5561532;25;20522;-48
2024/04/15 06:33:20;;;;;;;3.13;1.50;;;18.20;83.80;;;;;;5562732;25;21019;-49
2024/04/15 06:35:50;;;;;;;1.60;1.30;;;18.20;83.60;;;;;;5517907;26;20468;-47
2024/04/15 06:38:17;;;;;;;1.83;1.10;;;18.20;84.30;;;;;;5560424;25;20506;-48
2024/04/15 06:40:47;;;;;;;2.00;1.60;;;18.20;84.60;;;;;;5556947;25;20446;-47
2024/04/15 06:43:15;;;;;;;2.60;1.50;;;18.20;84.10;;;;;;5556250;25;21055;-46
2024/04/15 06:45:47;;;;;;;2.20;1.37;;;18.20;84.00;;;;;;5559187;25;20533;-46
2024/04/15 06:48:16;;;;;;;2.10;1.00;;;18.20;84.30;;;;;;5560706;25;20442;-46
2024/04/15 06:50:47;;;;;;;1.93;1.47;;;18.20;84.50;;;;;;5559445;25;20502;-50
2024/04/15 06:53:15;;;;;;;1.73;1.60;;;18.20;84.30;;;;;;5556277;25;20785;-47
2024/04/15 06:55:45;;;;;;;2.90;2.00;;;18.10;84.20;;;;;;5557954;25;20447;-47
2024/04/15 06:58:12;;;;;;;4.03;1.60;;;18.10;84.10;;;;;;5559383;25;20873;-46
2024/04/15 07:00:42;;;;;;;1.30;1.17;;;18.10;84.00;;;;;;5552284;25;20459;-49
2024/04/15 07:03:12;;;;;;;1.60;1.30;;;18.10;84.30;;;;;;5558812;25;20453;-47
2024/04/15 07:05:42;;;;;;;2.63;1.47;;;18.10;84.00;;;;;;5561873;25;20439;-47
2024/04/15 07:08:09;;;;;;;6.37;2.33;;;18.10;84.50;;;;;;5557441;25;20515;-46
2024/04/15 07:10:42;;;;;;;9.87;3.80;;;18.10;82.50;;;;;;5558367;25;21066;-49
2024/04/15 07:13:09;;;;;;;6.30;2.30;;;18.10;78.30;;;;;;5502189;25;20574;-47
2024/04/15 07:15:39;;;;;;;4.97;2.13;;;18.00;78.10;;;;;;5512171;26;20456;-48
2024/04/15 07:18:06;;;;;;;2.73;1.67;;;18.00;78.90;;;;;;5557940;25;20514;-46
2024/04/15 07:20:43;;;;;;;3.33;1.40;;;18.00;79.80;;;;;;5560753;25;21034;-49
2024/04/15 07:23:10;;;;;;;2.63;1.60;;;18.00;80.70;;;;;;5548421;25;20464;-48
2024/04/15 07:25:40;;;;;;;3.10;1.73;;;18.00;80.30;;;;;;5551605;25;20450;-49
2024/04/15 07:28:07;;;;;;;2.93;1.90;;;18.00;80.10;;;;;;5557739;25;20462;-48
2024/04/15 07:30:37;;;;;;;4.30;2.13;;;18.00;79.90;;;;;;5560052;25;20501;-47
2024/04/15 07:33:05;;;;;;;3.17;1.57;;;18.00;78.90;;;;;;5555249;25;20477;-47
2024/04/15 07:35:37;;;;;;;3.33;2.30;;;18.10;80.00;;;;;;5561721;25;20525;-48
2024/04/15 07:38:07;;;;;;;4.13;2.00;;;18.10;80.60;;;;;;5561761;25;20563;-49
2024/04/15 07:40:37;;;;;;;3.60;1.93;;;18.10;80.70;;;;;;5547777;25;20505;-50
2024/04/15 07:43:08;;;;;;;4.27;1.87;;;18.10;81.40;;;;;;5554361;25;20554;-48
2024/04/15 07:45:38;;;;;;;4.93;2.13;;;18.10;81.60;;;;;;5549433;25;20451;-50
2024/04/15 07:48:06;;;;;;;2.60;1.50;;;18.10;81.70;;;;;;5560831;25;20559;-48
2024/04/15 07:50:37;;;;;;;3.77;1.80;;;18.10;82.40;;;;;;5549978;25;20462;-48
2024/04/15 07:53:07;;;;;;;3.33;2.80;;;18.10;82.20;;;;;;5553676;25;20872;-48
2024/04/15 07:55:36;;;;;;;2.60;1.77;;;18.10;82.30;;;;;;5557467;25;20582;-46
2024/04/15 07:58:04;;;;;;;2.07;1.87;;;18.10;82.30;;;;;;5558193;25;20510;-50
2024/04/15 08:00:34;;;;;;;2.57;1.30;;;18.10;82.30;;;;;;5557390;25;20571;-50
2024/04/15 08:03:03;;;;;;;1.83;1.63;;;18.20;82.10;;;;;;5555758;25;20579;-49
2024/04/15 08:05:33;;;;;;;1.90;1.70;;;18.10;81.90;;;;;;5556600;25;21007;-48
2024/04/15 08:08:01;;;;;;;2.40;1.43;;;18.10;81.60;;;;;;5559368;25;20574;-49
2024/04/15 08:10:34;;;;;;;2.70;1.77;;;18.20;81.70;;;;;;5527997;25;20455;-50
2024/04/15 08:13:02;;;;;;;2.70;1.60;;;18.20;81.80;;;;;;5545251;25;20462;-51
2024/04/15 08:15:33;;;;;;;2.80;1.93;;;18.20;81.50;;;;;;5557509;25;21034;-48
2024/04/15 08:18:01;;;;;;;4.73;1.70;;;18.20;81.40;;;;;;5557521;25;20466;-48
2024/04/15 08:20:31;;;;;;;5.53;2.00;;;18.20;81.40;;;;;;5525728;25;21115;-48
2024/04/15 08:22:59;;;;;;;2.50;1.50;;;18.20;81.40;;;;;;5574664;25;20453;-49
2024/04/15 08:25:28;;;;;;;1.70;1.33;;;18.20;81.20;;;;;;5556994;25;20835;-48
2024/04/15 08:27:58;;;;;;;2.90;1.40;;;18.20;81.50;;;;;;5553977;25;20455;-48
2024/04/15 08:30:28;;;;;;;2.40;1.53;;;18.20;81.50;;;;;;5515105;25;20523;-49
2024/04/15 08:32:55;;;;;;;2.17;1.33;;;18.20;81.50;;;;;;5552070;25;20466;-49
2024/04/15 08:35:25;;;;;;;3.67;1.20;;;18.20;81.80;;;;;;5557169;25;21108;-49
2024/04/15 08:37:53;;;;;;;2.13;1.70;;;18.20;81.20;;;;;;5559334;25;21047;-47
2024/04/15 08:40:23;;;;;;;2.57;1.57;;;18.20;81.50;;;;;;5557404;25;20462;-48
2024/04/15 08:42:53;;;;;;;3.53;1.70;;;18.20;81.70;;;;;;5551129;25;20450;-48
2024/04/15 08:45:27;;;;;;;1.80;1.30;;;18.20;81.90;;;;;;5559040;25;20545;-48
2024/04/15 08:47:56;;;;;;;2.67;1.70;;;18.20;81.60;;;;;;5555542;25;20567;-48
2024/04/15 08:50:28;;;;;;;2.07;1.30;;;18.20;81.00;;;;;;5525496;25;20534;-47
2024/04/15 08:52:56;;;;;;;3.43;1.67;;;18.10;81.70;;;;;;5552130;25;20458;-49
2024/04/15 08:55:28;;;;;;;2.53;1.30;;;18.10;80.50;;;;;;5527267;25;20507;-49
2024/04/15 08:57:55;;;;;;;2.60;1.80;;;18.10;80.70;;;;;;5473262;25;20518;-49
2024/04/15 09:00:28;;;;;;;4.20;1.73;;;18.10;79.90;;;;;;5509552;25;20472;-50
2024/04/15 09:02:55;;;;;;;3.73;1.90;;;18.10;78.00;;;;;;5514122;25;20600;-51
2024/04/15 09:05:26;;;;;;;4.17;1.83;;;18.10;79.10;;;;;;5533588;25;20458;-48
2024/04/15 09:07:53;;;;;;;1.50;1.30;;;18.10;78.40;;;;;;5541586;25;20463;-48
2024/04/15 09:10:23;;;;;;;2.07;1.43;;;18.10;78.00;;;;;;5531174;25;20514;-50
2024/04/15 09:12:51;;;;;;;3.47;2.00;;;18.10;77.50;;;;;;5548166;25;20568;-48
2024/04/15 09:15:23;;;;;;;2.60;1.53;;;18.10;78.00;;;;;;5551761;25;20534;-52
2024/04/15 09:17:53;;;;;;;2.20;1.50;;;18.10;77.90;;;;;;5509802;25;20447;-49
2024/04/15 09:20:24;;;;;;;2.00;1.10;;;18.00;78.00;;;;;;5526518;25;20537;-48
2024/04/15 09:23:10;;;;;;;3.57;1.50;;;18.00;78.40;;;;;;5523452;25;21006;-49
2024/04/15 09:25:40;;;;;;;2.17;1.43;;;18.10;79.40;;;;;;5509036;25;20458;-50
2024/04/15 09:28:07;;;;;;;3.10;1.50;;;18.00;79.60;;;;;;5541801;25;20899;-48
2024/04/15 09:30:37;;;;;;;2.50;1.60;;;18.00;79.70;;;;;;5549384;25;21019;-48
2024/04/15 09:33:12;;;;;;;1.50;1.10;;;18.00;80.10;;;;;;5530364;25;20458;-49
2024/04/15 09:35:43;;;;;;;2.80;1.33;;;18.00;78.80;;;;;;5552076;25;20521;-48
2024/04/15 09:38:14;;;;;;;1.57;1.40;;;18.00;79.70;;;;;;5520874;25;20446;-53
2024/04/15 09:40:45;;;;;;;1.70;1.27;;;18.00;80.20;;;;;;5539494;25;20455;-49
2024/04/15 09:43:12;;;;;;;2.63;1.43;;;18.00;80.50;;;;;;5520910;25;20456;-48
2024/04/15 09:45:42;;;;;;;3.10;1.63;;;18.00;80.40;;;;;;5558354;25;20498;-47
2024/04/15 09:48:16;;;;;;;3.23;1.80;;;18.00;80.50;;;;;;5556969;25;20462;-49
2024/04/15 09:50:52;;;;;;;4.20;1.83;;;18.00;80.40;;;;;;5554813;25;20845;-47
2024/04/15 09:53:34;;;;;;;1.70;1.20;;;18.00;80.70;;;;;;5519986;25;20753;-45
2024/04/15 09:56:05;;;;;;;1.30;1.20;;;18.00;80.70;;;;;;5556385;25;20462;-47
2024/04/15 09:58:37;;;;;;;1.80;1.33;;;18.00;80.80;;;;;;5544334;25;20514;-49
2024/04/15 10:01:09;;;;;;;1.70;1.20;;;18.00;80.50;;;;;;5549941;25;20462;-46
2024/04/15 10:03:42;;;;;;;2.70;1.40;;;18.00;80.80;;;;;;5556660;25;20546;-48
2024/04/15 10:06:16;;;;;;;2.40;1.20;;;18.00;80.50;;;;;;5547360;25;20463;-47
2024/04/15 10:08:45;;;;;;;2.43;1.60;;;18.00;80.80;;;;;;5557494;25;20997;-48
2024/04/15 10:11:15;;;;;;;1.20;1.10;;;18.00;80.90;;;;;;5548699;25;20451;-46
2024/04/15 10:13:47;;;;;;;2.93;1.13;;;18.00;81.00;;;;;;5538007;25;20458;-47
2024/04/15 10:16:21;;;;;;;4.23;1.40;;;18.00;81.00;;;;;;5521016;25;20464;-48
2024/04/15 10:19:22;;;;;;;2.90;2.10;;;18.00;80.80;;;;;;5547130;25;20858;-48
2024/04/15 10:21:53;;;;;;;1.60;1.17;;;17.90;81.00;;;;;;5541869;25;20455;-46
2024/04/15 10:24:22;;;;;;;1.73;1.07;;;18.00;81.00;;;;;;5550194;25;20560;-52
2024/04/15 10:26:52;;;;;;;1.63;1.10;;;17.90;81.00;;;;;;5554358;25;20510;-47
2024/04/15 10:29:21;;;;;;;2.83;1.40;;;17.90;81.00;;;;;;5551402;25;20942;-48
2024/04/15 10:31:53;;;;;;;5.03;1.90;;;17.90;81.00;;;;;;5507866;25;20471;-47
2024/04/15 10:34:24;;;;;;;2.00;1.20;;;17.90;80.00;;;;;;5546849;25;20510;-46
2024/04/15 10:36:56;;;;;;;1.73;1.43;;;17.90;80.60;;;;;;5548700;25;20454;-48
2024/04/15 10:39:27;;;;;;;2.03;1.30;;;17.90;80.50;;;;;;5522126;25;20523;-49
2024/04/15 10:41:58;;;;;;;1.53;1.10;;;17.90;80.90;;;;;;5521132;25;20463;-48
2024/04/15 10:44:26;;;;;;;3.00;1.53;;;17.90;81.10;;;;;;5544731;25;20526;-50
2024/04/15 10:46:55;;;;;;;2.10;1.33;;;17.90;80.60;;;;;;5547633;25;20865;-48
2024/04/15 10:49:31;;;;;;;1.90;1.20;;;17.90;80.10;;;;;;5552038;25;20525;-49
2024/04/15 10:51:59;;;;;;;2.40;1.43;;;17.90;80.60;;;;;;5549874;25;20601;-49
2024/04/15 10:54:29;;;;;;;1.97;1.10;;;17.90;81.00;;;;;;5538237;25;21076;-52
2024/04/15 10:56:56;;;;;;;2.63;1.23;;;17.90;80.90;;;;;;5538820;25;20579;-49
2024/04/15 10:59:26;;;;;;;1.30;1.10;;;17.90;81.00;;;;;;5535194;25;20455;-49
2024/04/15 11:01:53;;;;;;;2.07;1.17;;;17.90;80.90;;;;;;5539769;25;20514;-50
2024/04/15 11:04:24;;;;;;;2.00;1.20;;;17.90;81.00;;;;;;5534951;25;20553;-48
2024/04/15 11:06:54;;;;;;;3.83;1.57;;;17.80;80.30;;;;;;5536287;25;20514;-48
2024/04/15 11:09:24;;;;;;;3.10;1.40;;;17.80;78.20;;;;;;5533822;25;21693;-48
2024/04/15 11:11:53;;;;;;;2.70;1.40;;;17.80;79.00;;;;;;5536863;25;21028;-51
2024/04/15 11:14:23;;;;;;;2.07;1.40;;;17.90;79.70;;;;;;5538620;25;20474;-48
2024/04/15 11:16:51;;;;;;;1.73;1.17;;;17.80;79.70;;;;;;5543339;25;20506;-49
2024/04/15 11:19:22;;;;;;;4.17;1.53;;;17.90;78.20;;;;;;5542181;25;20905;-52
2024/04/15 11:22:04;;;;;;;1.23;1.00;;;17.80;78.40;;;;;;5536235;25;20453;-49
2024/04/15 11:24:37;;;;;;;2.47;1.50;;;17.90;79.30;;;;;;5535967;25;20451;-47
2024/04/15 11:27:08;;;;;;;2.03;1.50;;;17.80;78.40;;;;;;5534496;25;21144;-47
2024/04/15 11:29:39;;;;;;;2.33;0.87;;;17.80;79.70;;;;;;5547971;25;20563;-47
2024/04/15 11:32:23;;;;;;;1.57;0.93;;;17.90;80.00;;;;;;5539195;25;21079;-47
2024/04/15 11:34:53;;;;;;;1.97;1.20;;;17.80;79.40;;;;;;5528015;25;20805;-48
2024/04/15 11:37:25;;;;;;;2.07;1.13;;;17.80;79.90;;;;;;5548482;25;20531;-49
2024/04/15 11:39:55;;;;;;;2.20;1.07;;;17.80;75.40;;;;;;5557430;25;21107;-51
2024/04/15 11:42:25;;;;;;;2.50;1.33;;;17.80;74.50;;;;;;5543244;25;20501;-48
2024/04/15 11:44:56;;;;;;;3.17;1.40;;;17.80;76.80;;;;;;5546251;25;20445;-48
2024/04/15 11:47:24;;;;;;;3.20;1.40;;;17.80;77.90;;;;;;5537483;25;20522;-49
2024/04/15 11:49:54;;;;;;;2.00;1.27;;;17.80;77.40;;;;;;5539490;25;20591;-49
2024/04/15 11:52:24;;;;;;;2.00;1.20;;;17.80;76.30;;;;;;5539147;25;20599;-50
2024/04/15 11:54:56;;;;;;;2.77;1.17;;;17.80;75.70;;;;;;5550661;25;20525;-48
2024/04/15 11:57:23;;;;;;;2.40;1.57;;;17.80;76.30;;;;;;5545343;25;20521;-49
2024/04/15 11:59:53;;;;;;;3.00;1.33;;;17.80;75.90;;;;;;5535254;25;20568;-49
2024/04/15 12:02:20;;;;;;;1.27;1.10;;;17.80;76.10;;;;;;5536292;25;21164;-46
2024/04/15 12:04:52;;;;;;;3.00;1.40;;;17.80;74.30;;;;;;5539394;25;20513;-48
2024/04/15 12:07:22;;;;;;;3.13;1.57;;;17.80;74.60;;;;;;5542280;25;20798;-48
2024/04/15 12:09:56;;;;;;;3.57;1.30;;;17.80;73.90;;;;;;5533471;25;20491;-47
2024/04/15 12:12:24;;;;;;;2.27;1.20;;;17.80;73.50;;;;;;5534644;25;21142;-47
2024/04/15 12:14:53;;;;;;;4.10;1.40;;;17.80;73.80;;;;;;5555824;25;20500;-47
2024/04/15 12:17:21;;;;;;;2.10;0.93;;;17.80;73.80;;;;;;5550122;25;20462;-48
2024/04/15 12:19:51;;;;;;;2.40;1.30;;;17.80;74.90;;;;;;5562597;25;20859;-48
2024/04/15 12:22:18;;;;;;;2.13;2.00;;;17.80;74.70;;;;;;5548070;25;21128;-48
2024/04/15 12:24:48;;;;;;;2.50;1.40;;;17.90;75.70;;;;;;5553590;25;21034;-48
2024/04/15 12:27:36;;;;;;;2.03;1.60;;;17.80;73.00;;;;;;5551360;25;20527;-50
2024/04/15 12:30:10;;;;;;;1.53;1.17;;;17.80;73.10;;;;;;5550811;25;21020;-48
2024/04/15 12:32:39;;;;;;;2.83;1.30;;;17.80;72.20;;;;;;5548486;25;20463;-48
2024/04/15 12:35:10;;;;;;;2.63;1.37;;;17.80;73.40;;;;;;5556257;25;20808;-48
2024/04/15 12:37:39;;;;;;;3.77;1.10;;;17.80;74.10;;;;;;5554101;25;20520;-47
2024/04/15 12:40:10;;;;;;;2.47;1.33;;;17.80;72.90;;;;;;5557836;25;20518;-49
2024/04/15 12:42:40;;;;;;;3.20;1.73;;;17.80;72.80;;;;;;5553479;25;20522;-48
2024/04/15 12:45:10;;;;;;;3.53;1.20;;;17.80;72.40;;;;;;5542174;25;20861;-47
2024/04/15 12:47:38;;;;;;;1.53;0.83;;;17.80;71.80;;;;;;5539883;25;21066;-48
2024/04/15 12:50:09;;;;;;;2.43;1.37;;;17.80;72.10;;;;;;5540284;25;20483;-49
2024/04/15 12:52:36;;;;;;;2.13;0.97;;;17.70;72.00;;;;;;5536052;25;20578;-47
2024/04/15 12:55:08;;;;;;;2.13;1.53;;;17.80;72.50;;;;;;5534838;25;20451;-48
2024/04/15 12:57:35;;;;;;;1.87;1.20;;;17.70;71.00;;;;;;5513224;25;20544;-47
2024/04/15 13:00:11;;;;;;;2.90;1.60;;;17.80;71.00;;;;;;5535556;25;20472;-50
2024/04/15 13:02:39;;;;;;;2.50;1.20;;;17.70;71.50;;;;;;5510501;25;21101;-47